sensor_id;sensor_type;location;lat;lon;timestamp;temperature;humidity
68924;DHT22;55961;52.156;20.942;2023-06-14T00:01:58;14.90;81.00
68924;DHT22;55961;52.156;20.942;2023-06-14T00:04:24;14.90;80.80
68924;DHT22;55961;52.156;20.942;2023-06-14T00:06:50;14.90;80.80
68924;DHT22;55961;52.156;20.942;2023-06-14T00:09:17;14.90;80.70
68924;DHT22;55961;52.156;20.942;2023-06-14T00:11:43;14.90;80.60
68924;DHT22;55961;52.156;20.942;2023-06-14T00:14:09;14.90;80.90
68924;DHT22;55961;52.156;20.942;2023-06-14T00:16:36;14.90;80.80
68924;DHT22;55961;52.156;20.942;2023-06-14T00:19:03;14.90;80.90
68924;DHT22;55961;52.156;20.942;2023-06-14T00:21:30;14.90;81.00
68924;DHT22;55961;52.156;20.942;2023-06-14T00:23:58;14.90;81.00
68924;DHT22;55961;52.156;20.942;2023-06-14T00:26:24;14.90;81.00
68924;DHT22;55961;52.156;20.942;2023-06-14T00:28:52;14.90;81.10
68924;DHT22;55961;52.156;20.942;2023-06-14T00:31:18;14.80;81.10
68924;DHT22;55961;52.156;20.942;2023-06-14T00:33:44;14.80;81.20
68924;DHT22;55961;52.156;20.942;2023-06-14T00:36:10;14.90;81.30
68924;DHT22;55961;52.156;20.942;2023-06-14T00:38:36;14.80;81.30
68924;DHT22;55961;52.156;20.942;2023-06-14T00:41:02;14.80;81.30
68924;DHT22;55961;52.156;20.942;2023-06-14T00:43:28;14.80;81.20
68924;DHT22;55961;52.156;20.942;2023-06-14T00:45:54;14.80;81.20
68924;DHT22;55961;52.156;20.942;2023-06-14T00:48:20;14.80;81.30
68924;DHT22;55961;52.156;20.942;2023-06-14T00:50:46;14.80;81.30
68924;DHT22;55961;52.156;20.942;2023-06-14T00:53:15;14.80;81.30
68924;DHT22;55961;52.156;20.942;2023-06-14T00:55:43;14.80;81.30
68924;DHT22;55961;52.156;20.942;2023-06-14T00:58:10;14.80;81.10
68924;DHT22;55961;52.156;20.942;2023-06-14T01:00:36;14.80;81.10
68924;DHT22;55961;52.156;20.942;2023-06-14T01:03:02;14.80;81.20
68924;DHT22;55961;52.156;20.942;2023-06-14T01:05:30;14.80;81.30
68924;DHT22;55961;52.156;20.942;2023-06-14T01:08:19;14.80;81.20
68924;DHT22;55961;52.156;20.942;2023-06-14T01:11:05;14.80;81.40
68924;DHT22;55961;52.156;20.942;2023-06-14T01:13:34;14.80;81.10
68924;DHT22;55961;52.156;20.942;2023-06-14T01:16:02;14.80;80.90
68924;DHT22;55961;52.156;20.942;2023-06-14T01:18:29;14.80;80.60
68924;DHT22;55961;52.156;20.942;2023-06-14T01:20:56;14.80;80.60
68924;DHT22;55961;52.156;20.942;2023-06-14T01:23:23;14.80;80.40
68924;DHT22;55961;52.156;20.942;2023-06-14T01:25:49;14.80;80.40
68924;DHT22;55961;52.156;20.942;2023-06-14T01:28:20;14.80;80.40
68924;DHT22;55961;52.156;20.942;2023-06-14T01:30:52;14.80;80.40
68924;DHT22;55961;52.156;20.942;2023-06-14T01:33:21;14.80;80.20
68924;DHT22;55961;52.156;20.942;2023-06-14T01:35:49;14.80;80.20
68924;DHT22;55961;52.156;20.942;2023-06-14T01:38:17;14.70;80.20
68924;DHT22;55961;52.156;20.942;2023-06-14T01:40:45;14.70;80.10
68924;DHT22;55961;52.156;20.942;2023-06-14T01:43:15;14.70;80.20
68924;DHT22;55961;52.156;20.942;2023-06-14T01:45:42;14.70;80.20
68924;DHT22;55961;52.156;20.942;2023-06-14T01:48:09;14.70;80.30
68924;DHT22;55961;52.156;20.942;2023-06-14T01:50:36;14.70;80.30
68924;DHT22;55961;52.156;20.942;2023-06-14T01:53:02;14.70;80.40
68924;DHT22;55961;52.156;20.942;2023-06-14T01:55:28;14.70;80.60
68924;DHT22;55961;52.156;20.942;2023-06-14T01:57:54;14.70;80.50
68924;DHT22;55961;52.156;20.942;2023-06-14T02:00:20;14.70;80.60
68924;DHT22;55961;52.156;20.942;2023-06-14T02:02:47;14.70;80.70
68924;DHT22;55961;52.156;20.942;2023-06-14T02:05:13;14.70;80.70
68924;DHT22;55961;52.156;20.942;2023-06-14T02:07:41;14.70;80.80
68924;DHT22;55961;52.156;20.942;2023-06-14T02:10:07;14.60;81.00
68924;DHT22;55961;52.156;20.942;2023-06-14T02:12:33;14.70;81.10
68924;DHT22;55961;52.156;20.942;2023-06-14T02:14:59;14.70;81.10
68924;DHT22;55961;52.156;20.942;2023-06-14T02:17:24;14.70;81.10
68924;DHT22;55961;52.156;20.942;2023-06-14T02:19:50;14.70;81.00
68924;DHT22;55961;52.156;20.942;2023-06-14T02:22:16;14.70;81.10
68924;DHT22;55961;52.156;20.942;2023-06-14T02:24:43;14.70;81.10
68924;DHT22;55961;52.156;20.942;2023-06-14T02:27:09;14.70;81.20
68924;DHT22;55961;52.156;20.942;2023-06-14T02:29:38;14.70;81.20
68924;DHT22;55961;52.156;20.942;2023-06-14T02:32:04;14.70;81.30
68924;DHT22;55961;52.156;20.942;2023-06-14T02:34:33;14.70;81.30
68924;DHT22;55961;52.156;20.942;2023-06-14T02:37:01;14.70;81.10
68924;DHT22;55961;52.156;20.942;2023-06-14T02:39:29;14.70;81.10
68924;DHT22;55961;52.156;20.942;2023-06-14T02:41:55;14.70;81.10
68924;DHT22;55961;52.156;20.942;2023-06-14T02:44:24;14.70;81.20
68924;DHT22;55961;52.156;20.942;2023-06-14T02:46:53;14.70;81.10
68924;DHT22;55961;52.156;20.942;2023-06-14T02:49:19;14.70;81.20
68924;DHT22;55961;52.156;20.942;2023-06-14T02:51:45;14.70;81.30
68924;DHT22;55961;52.156;20.942;2023-06-14T02:54:11;14.80;81.40
68924;DHT22;55961;52.156;20.942;2023-06-14T02:56:36;14.80;81.70
68924;DHT22;55961;52.156;20.942;2023-06-14T02:59:02;14.80;81.90
68924;DHT22;55961;52.156;20.942;2023-06-14T03:01:28;14.80;81.90
68924;DHT22;55961;52.156;20.942;2023-06-14T03:04:01;14.80;81.90
68924;DHT22;55961;52.156;20.942;2023-06-14T03:06:31;14.80;81.80
68924;DHT22;55961;52.156;20.942;2023-06-14T03:08:58;14.80;81.70
68924;DHT22;55961;52.156;20.942;2023-06-14T03:11:30;14.80;81.50
68924;DHT22;55961;52.156;20.942;2023-06-14T03:13:57;14.80;81.30
68924;DHT22;55961;52.156;20.942;2023-06-14T03:16:23;14.80;81.20
68924;DHT22;55961;52.156;20.942;2023-06-14T03:18:53;14.80;81.10
68924;DHT22;55961;52.156;20.942;2023-06-14T03:21:19;14.80;81.20
68924;DHT22;55961;52.156;20.942;2023-06-14T03:23:48;14.80;80.80
68924;DHT22;55961;52.156;20.942;2023-06-14T03:26:15;14.80;80.70
68924;DHT22;55961;52.156;20.942;2023-06-14T03:28:46;14.80;80.60
68924;DHT22;55961;52.156;20.942;2023-06-14T03:31:13;14.80;80.40
68924;DHT22;55961;52.156;20.942;2023-06-14T03:33:39;14.80;80.40
68924;DHT22;55961;52.156;20.942;2023-06-14T03:36:06;14.80;80.30
68924;DHT22;55961;52.156;20.942;2023-06-14T03:38:35;14.80;80.30
68924;DHT22;55961;52.156;20.942;2023-06-14T03:41:01;14.80;80.10
68924;DHT22;55961;52.156;20.942;2023-06-14T03:43:27;14.80;79.90
68924;DHT22;55961;52.156;20.942;2023-06-14T03:45:53;14.80;79.80
68924;DHT22;55961;52.156;20.942;2023-06-14T03:48:19;14.80;79.70
68924;DHT22;55961;52.156;20.942;2023-06-14T03:50:45;14.80;79.40
68924;DHT22;55961;52.156;20.942;2023-06-14T03:53:11;14.80;79.20
68924;DHT22;55961;52.156;20.942;2023-06-14T03:55:37;14.80;79.30
68924;DHT22;55961;52.156;20.942;2023-06-14T03:58:03;14.80;79.30
68924;DHT22;55961;52.156;20.942;2023-06-14T04:00:29;14.80;79.40
68924;DHT22;55961;52.156;20.942;2023-06-14T04:02:55;14.80;79.10
68924;DHT22;55961;52.156;20.942;2023-06-14T04:05:21;14.80;79.20
68924;DHT22;55961;52.156;20.942;2023-06-14T04:07:48;14.80;79.20
68924;DHT22;55961;52.156;20.942;2023-06-14T04:10:16;14.90;79.30
68924;DHT22;55961;52.156;20.942;2023-06-14T04:12:42;14.90;79.40
68924;DHT22;55961;52.156;20.942;2023-06-14T04:15:09;14.90;79.40
68924;DHT22;55961;52.156;20.942;2023-06-14T04:17:36;14.90;79.20
68924;DHT22;55961;52.156;20.942;2023-06-14T04:20:03;14.90;79.40
68924;DHT22;55961;52.156;20.942;2023-06-14T04:22:31;14.90;79.40
68924;DHT22;55961;52.156;20.942;2023-06-14T04:24:57;14.90;79.40
68924;DHT22;55961;52.156;20.942;2023-06-14T04:27:26;15.00;79.60
68924;DHT22;55961;52.156;20.942;2023-06-14T04:29:55;15.00;79.50
68924;DHT22;55961;52.156;20.942;2023-06-14T04:32:26;15.00;79.40
68924;DHT22;55961;52.156;20.942;2023-06-14T04:34:56;15.10;79.30
68924;DHT22;55961;52.156;20.942;2023-06-14T04:37:23;15.10;79.30
68924;DHT22;55961;52.156;20.942;2023-06-14T04:39:49;15.10;79.00
68924;DHT22;55961;52.156;20.942;2023-06-14T04:42:16;15.10;79.00
68924;DHT22;55961;52.156;20.942;2023-06-14T04:44:42;15.20;78.90
68924;DHT22;55961;52.156;20.942;2023-06-14T04:47:12;15.20;79.10
68924;DHT22;55961;52.156;20.942;2023-06-14T04:49:38;15.30;79.20
68924;DHT22;55961;52.156;20.942;2023-06-14T04:52:06;15.30;79.00
68924;DHT22;55961;52.156;20.942;2023-06-14T04:54:32;15.40;78.90
68924;DHT22;55961;52.156;20.942;2023-06-14T04:56:59;15.40;78.80
68924;DHT22;55961;52.156;20.942;2023-06-14T04:59:25;15.50;78.50
68924;DHT22;55961;52.156;20.942;2023-06-14T05:01:51;15.50;78.30
68924;DHT22;55961;52.156;20.942;2023-06-14T05:04:19;15.60;77.90
68924;DHT22;55961;52.156;20.942;2023-06-14T05:06:45;15.60;77.90
68924;DHT22;55961;52.156;20.942;2023-06-14T05:09:14;15.60;77.90
68924;DHT22;55961;52.156;20.942;2023-06-14T05:11:41;15.70;77.60
68924;DHT22;55961;52.156;20.942;2023-06-14T05:14:10;15.70;77.40
68924;DHT22;55961;52.156;20.942;2023-06-14T05:16:36;15.70;77.50
68924;DHT22;55961;52.156;20.942;2023-06-14T05:19:03;15.70;77.20
68924;DHT22;55961;52.156;20.942;2023-06-14T05:21:30;15.70;77.10
68924;DHT22;55961;52.156;20.942;2023-06-14T05:23:57;15.80;77.30
68924;DHT22;55961;52.156;20.942;2023-06-14T05:26:23;15.80;77.40
68924;DHT22;55961;52.156;20.942;2023-06-14T05:28:57;15.80;77.80
68924;DHT22;55961;52.156;20.942;2023-06-14T05:31:24;15.80;78.00
68924;DHT22;55961;52.156;20.942;2023-06-14T05:33:52;15.80;78.00
68924;DHT22;55961;52.156;20.942;2023-06-14T05:36:19;15.90;78.00
68924;DHT22;55961;52.156;20.942;2023-06-14T05:38:45;15.90;78.20
68924;DHT22;55961;52.156;20.942;2023-06-14T05:41:11;16.00;78.10
68924;DHT22;55961;52.156;20.942;2023-06-14T05:43:37;16.00;77.90
68924;DHT22;55961;52.156;20.942;2023-06-14T05:46:03;16.00;77.50
68924;DHT22;55961;52.156;20.942;2023-06-14T05:48:30;16.10;77.20
68924;DHT22;55961;52.156;20.942;2023-06-14T05:50:57;16.10;77.10
68924;DHT22;55961;52.156;20.942;2023-06-14T05:53:24;16.10;76.60
68924;DHT22;55961;52.156;20.942;2023-06-14T05:55:50;16.10;76.80
68924;DHT22;55961;52.156;20.942;2023-06-14T05:58:19;16.20;76.40
68924;DHT22;55961;52.156;20.942;2023-06-14T06:00:45;16.20;76.00
68924;DHT22;55961;52.156;20.942;2023-06-14T06:03:12;16.20;76.10
68924;DHT22;55961;52.156;20.942;2023-06-14T06:05:39;16.20;75.80
68924;DHT22;55961;52.156;20.942;2023-06-14T06:08:05;16.20;75.60
68924;DHT22;55961;52.156;20.942;2023-06-14T06:10:31;16.30;75.50
68924;DHT22;55961;52.156;20.942;2023-06-14T06:12:57;16.30;75.70
68924;DHT22;55961;52.156;20.942;2023-06-14T06:15:23;16.40;75.60
68924;DHT22;55961;52.156;20.942;2023-06-14T06:17:49;16.40;75.40
68924;DHT22;55961;52.156;20.942;2023-06-14T06:20:16;16.40;75.70
68924;DHT22;55961;52.156;20.942;2023-06-14T06:22:43;16.50;76.00
68924;DHT22;55961;52.156;20.942;2023-06-14T06:25:09;16.60;75.40
68924;DHT22;55961;52.156;20.942;2023-06-14T06:27:35;16.70;74.70
68924;DHT22;55961;52.156;20.942;2023-06-14T06:30:04;16.80;74.50
68924;DHT22;55961;52.156;20.942;2023-06-14T06:32:30;16.90;74.30
68924;DHT22;55961;52.156;20.942;2023-06-14T06:34:56;17.00;73.10
68924;DHT22;55961;52.156;20.942;2023-06-14T06:37:21;17.10;72.70
68924;DHT22;55961;52.156;20.942;2023-06-14T06:39:48;17.20;72.50
68924;DHT22;55961;52.156;20.942;2023-06-14T06:42:13;17.30;72.60
68924;DHT22;55961;52.156;20.942;2023-06-14T06:44:39;17.40;72.00
68924;DHT22;55961;52.156;20.942;2023-06-14T06:47:05;17.50;71.20
68924;DHT22;55961;52.156;20.942;2023-06-14T06:49:32;17.50;70.70
68924;DHT22;55961;52.156;20.942;2023-06-14T06:52:05;17.60;70.90
68924;DHT22;55961;52.156;20.942;2023-06-14T06:54:33;17.70;71.10
68924;DHT22;55961;52.156;20.942;2023-06-14T06:56:59;17.70;70.70
68924;DHT22;55961;52.156;20.942;2023-06-14T06:59:26;17.80;71.20
68924;DHT22;55961;52.156;20.942;2023-06-14T07:01:52;17.90;70.50
68924;DHT22;55961;52.156;20.942;2023-06-14T07:04:18;18.00;70.40
68924;DHT22;55961;52.156;20.942;2023-06-14T07:06:46;18.00;69.20
68924;DHT22;55961;52.156;20.942;2023-06-14T07:09:13;18.10;68.90
68924;DHT22;55961;52.156;20.942;2023-06-14T07:11:41;18.10;68.10
68924;DHT22;55961;52.156;20.942;2023-06-14T07:14:07;18.20;66.70
68924;DHT22;55961;52.156;20.942;2023-06-14T07:16:33;18.20;66.60
68924;DHT22;55961;52.156;20.942;2023-06-14T07:18:59;18.30;66.40
68924;DHT22;55961;52.156;20.942;2023-06-14T07:21:26;18.30;66.70
68924;DHT22;55961;52.156;20.942;2023-06-14T07:23:55;18.40;66.90
68924;DHT22;55961;52.156;20.942;2023-06-14T07:26:21;18.40;67.30
68924;DHT22;55961;52.156;20.942;2023-06-14T07:28:49;18.50;67.80
68924;DHT22;55961;52.156;20.942;2023-06-14T07:31:15;18.50;65.90
68924;DHT22;55961;52.156;20.942;2023-06-14T07:33:42;18.60;65.10
68924;DHT22;55961;52.156;20.942;2023-06-14T07:36:08;18.60;64.50
68924;DHT22;55961;52.156;20.942;2023-06-14T07:38:34;18.60;64.80
68924;DHT22;55961;52.156;20.942;2023-06-14T07:41:00;18.70;64.60
68924;DHT22;55961;52.156;20.942;2023-06-14T07:43:26;18.70;65.00
68924;DHT22;55961;52.156;20.942;2023-06-14T07:45:52;18.70;65.30
68924;DHT22;55961;52.156;20.942;2023-06-14T07:48:18;18.80;65.70
68924;DHT22;55961;52.156;20.942;2023-06-14T07:50:44;18.80;65.60
68924;DHT22;55961;52.156;20.942;2023-06-14T07:53:11;18.90;65.00
68924;DHT22;55961;52.156;20.942;2023-06-14T07:55:36;18.90;64.50
68924;DHT22;55961;52.156;20.942;2023-06-14T07:58:03;19.00;64.00
68924;DHT22;55961;52.156;20.942;2023-06-14T08:00:29;19.00;64.40
68924;DHT22;55961;52.156;20.942;2023-06-14T08:02:55;19.10;63.70
68924;DHT22;55961;52.156;20.942;2023-06-14T08:05:25;19.20;63.70
68924;DHT22;55961;52.156;20.942;2023-06-14T08:07:55;19.20;63.40
68924;DHT22;55961;52.156;20.942;2023-06-14T08:10:22;19.30;63.20
68924;DHT22;55961;52.156;20.942;2023-06-14T08:12:48;19.30;63.60
68924;DHT22;55961;52.156;20.942;2023-06-14T08:15:16;19.40;63.70
68924;DHT22;55961;52.156;20.942;2023-06-14T08:17:43;19.50;63.70
68924;DHT22;55961;52.156;20.942;2023-06-14T08:20:09;19.50;62.60
68924;DHT22;55961;52.156;20.942;2023-06-14T08:22:36;19.60;62.90
68924;DHT22;55961;52.156;20.942;2023-06-14T08:25:03;19.70;62.90
68924;DHT22;55961;52.156;20.942;2023-06-14T08:27:30;19.70;63.00
68924;DHT22;55961;52.156;20.942;2023-06-14T08:29:56;19.80;62.40
68924;DHT22;55961;52.156;20.942;2023-06-14T08:32:23;19.90;62.60
68924;DHT22;55961;52.156;20.942;2023-06-14T08:34:49;19.90;60.70
68924;DHT22;55961;52.156;20.942;2023-06-14T08:37:15;20.00;60.30
68924;DHT22;55961;52.156;20.942;2023-06-14T08:39:40;20.10;60.70
68924;DHT22;55961;52.156;20.942;2023-06-14T08:42:07;20.20;59.20
68924;DHT22;55961;52.156;20.942;2023-06-14T08:44:34;20.30;60.40
68924;DHT22;55961;52.156;20.942;2023-06-14T08:47:01;20.40;60.60
68924;DHT22;55961;52.156;20.942;2023-06-14T08:49:29;20.50;60.60
68924;DHT22;55961;52.156;20.942;2023-06-14T08:51:59;20.70;59.60
68924;DHT22;55961;52.156;20.942;2023-06-14T08:54:28;20.80;58.80
68924;DHT22;55961;52.156;20.942;2023-06-14T08:56:59;21.00;58.40
68924;DHT22;55961;52.156;20.942;2023-06-14T08:59:28;21.10;56.90
68924;DHT22;55961;52.156;20.942;2023-06-14T09:01:57;21.20;56.70
68924;DHT22;55961;52.156;20.942;2023-06-14T09:04:25;21.30;55.40
68924;DHT22;55961;52.156;20.942;2023-06-14T09:06:56;21.40;55.70
68924;DHT22;55961;52.156;20.942;2023-06-14T09:09:22;21.40;56.20
68924;DHT22;55961;52.156;20.942;2023-06-14T09:11:55;21.60;56.10
68924;DHT22;55961;52.156;20.942;2023-06-14T09:14:24;21.70;57.20
68924;DHT22;55961;52.156;20.942;2023-06-14T09:16:54;21.80;56.80
68924;DHT22;55961;52.156;20.942;2023-06-14T09:19:23;21.90;55.50
68924;DHT22;55961;52.156;20.942;2023-06-14T09:21:50;22.10;55.80
68924;DHT22;55961;52.156;20.942;2023-06-14T09:24:19;22.10;55.70
68924;DHT22;55961;52.156;20.942;2023-06-14T09:26:50;22.20;55.60
68924;DHT22;55961;52.156;20.942;2023-06-14T09:29:17;22.30;54.90
68924;DHT22;55961;52.156;20.942;2023-06-14T09:31:46;22.40;54.60
68924;DHT22;55961;52.156;20.942;2023-06-14T09:34:12;22.50;55.50
68924;DHT22;55961;52.156;20.942;2023-06-14T09:36:40;22.60;55.40
68924;DHT22;55961;52.156;20.942;2023-06-14T09:39:08;22.60;54.90
68924;DHT22;55961;52.156;20.942;2023-06-14T09:44:03;22.80;53.50
68924;DHT22;55961;52.156;20.942;2023-06-14T09:46:30;22.80;53.90
68924;DHT22;55961;52.156;20.942;2023-06-14T09:49:00;22.80;53.90
68924;DHT22;55961;52.156;20.942;2023-06-14T09:51:27;22.90;54.60
68924;DHT22;55961;52.156;20.942;2023-06-14T09:53:59;22.90;54.30
68924;DHT22;55961;52.156;20.942;2023-06-14T09:56:37;23.00;54.80
68924;DHT22;55961;52.156;20.942;2023-06-14T09:59:05;23.10;54.70
68924;DHT22;55961;52.156;20.942;2023-06-14T10:01:34;23.20;54.70
68924;DHT22;55961;52.156;20.942;2023-06-14T10:04:03;23.30;54.90
68924;DHT22;55961;52.156;20.942;2023-06-14T10:06:30;23.40;54.20
68924;DHT22;55961;52.156;20.942;2023-06-14T10:08:58;23.50;54.00
68924;DHT22;55961;52.156;20.942;2023-06-14T10:11:27;23.60;53.70
68924;DHT22;55961;52.156;20.942;2023-06-14T10:13:57;23.70;54.50
68924;DHT22;55961;52.156;20.942;2023-06-14T10:24:16;24.20;49.30
68924;DHT22;55961;52.156;20.942;2023-06-14T10:26:54;24.30;49.10
68924;DHT22;55961;52.156;20.942;2023-06-14T10:29:20;24.30;48.10
68924;DHT22;55961;52.156;20.942;2023-06-14T10:31:53;24.40;47.60
68924;DHT22;55961;52.156;20.942;2023-06-14T10:34:28;24.40;48.00
68924;DHT22;55961;52.156;20.942;2023-06-14T10:37:21;24.40;48.10
68924;DHT22;55961;52.156;20.942;2023-06-14T10:39:47;24.50;48.00
68924;DHT22;55961;52.156;20.942;2023-06-14T10:42:14;24.50;49.10
68924;DHT22;55961;52.156;20.942;2023-06-14T10:47:38;24.70;48.40
68924;DHT22;55961;52.156;20.942;2023-06-14T10:50:06;24.80;47.30
68924;DHT22;55961;52.156;20.942;2023-06-14T10:52:37;24.80;47.30
68924;DHT22;55961;52.156;20.942;2023-06-14T10:55:14;24.90;47.80
68924;DHT22;55961;52.156;20.942;2023-06-14T10:57:50;24.90;47.50
68924;DHT22;55961;52.156;20.942;2023-06-14T11:00:22;25.00;47.30
68924;DHT22;55961;52.156;20.942;2023-06-14T11:05:25;25.10;47.20
68924;DHT22;55961;52.156;20.942;2023-06-14T11:10:45;25.30;46.40
68924;DHT22;55961;52.156;20.942;2023-06-14T11:13:12;25.40;46.50
68924;DHT22;55961;52.156;20.942;2023-06-14T11:15:44;25.40;46.10
68924;DHT22;55961;52.156;20.942;2023-06-14T11:18:10;25.40;46.00
68924;DHT22;55961;52.156;20.942;2023-06-14T11:20:36;25.40;46.20
68924;DHT22;55961;52.156;20.942;2023-06-14T11:23:03;25.40;46.40
68924;DHT22;55961;52.156;20.942;2023-06-14T11:25:30;25.40;46.10
68924;DHT22;55961;52.156;20.942;2023-06-14T11:27:57;25.40;46.20
68924;DHT22;55961;52.156;20.942;2023-06-14T11:30:24;25.30;44.70
68924;DHT22;55961;52.156;20.942;2023-06-14T11:32:52;25.30;45.10
68924;DHT22;55961;52.156;20.942;2023-06-14T11:35:21;25.20;45.60
68924;DHT22;55961;52.156;20.942;2023-06-14T11:37:52;25.20;45.20
68924;DHT22;55961;52.156;20.942;2023-06-14T11:40:18;25.10;45.60
68924;DHT22;55961;52.156;20.942;2023-06-14T11:42:44;25.00;45.30
68924;DHT22;55961;52.156;20.942;2023-06-14T11:45:11;25.00;45.30
68924;DHT22;55961;52.156;20.942;2023-06-14T11:47:39;25.00;45.50
68924;DHT22;55961;52.156;20.942;2023-06-14T11:50:07;25.00;46.60
68924;DHT22;55961;52.156;20.942;2023-06-14T11:52:34;25.00;45.50
68924;DHT22;55961;52.156;20.942;2023-06-14T11:55:01;25.00;45.80
68924;DHT22;55961;52.156;20.942;2023-06-14T11:57:30;25.00;46.00
68924;DHT22;55961;52.156;20.942;2023-06-14T11:59:56;25.00;45.20
68924;DHT22;55961;52.156;20.942;2023-06-14T12:02:22;25.10;45.70
68924;DHT22;55961;52.156;20.942;2023-06-14T12:04:49;25.00;44.90
68924;DHT22;55961;52.156;20.942;2023-06-14T12:07:15;25.00;44.60
68924;DHT22;55961;52.156;20.942;2023-06-14T12:10:03;25.10;44.40
68924;DHT22;55961;52.156;20.942;2023-06-14T12:12:36;25.10;44.40
68924;DHT22;55961;52.156;20.942;2023-06-14T12:15:07;25.10;44.00
68924;DHT22;55961;52.156;20.942;2023-06-14T12:17:36;25.10;44.00
68924;DHT22;55961;52.156;20.942;2023-06-14T12:20:13;25.10;44.20
68924;DHT22;55961;52.156;20.942;2023-06-14T12:22:53;25.10;44.30
68924;DHT22;55961;52.156;20.942;2023-06-14T12:28:05;25.00;44.50
68924;DHT22;55961;52.156;20.942;2023-06-14T12:30:32;25.00;45.10
68924;DHT22;55961;52.156;20.942;2023-06-14T12:32:58;25.00;44.30
68924;DHT22;55961;52.156;20.942;2023-06-14T12:35:24;25.00;44.60
68924;DHT22;55961;52.156;20.942;2023-06-14T12:37:50;25.00;43.80
68924;DHT22;55961;52.156;20.942;2023-06-14T12:40:16;25.00;43.10
68924;DHT22;55961;52.156;20.942;2023-06-14T12:42:42;25.00;43.10
68924;DHT22;55961;52.156;20.942;2023-06-14T12:45:08;25.00;42.50
68924;DHT22;55961;52.156;20.942;2023-06-14T12:47:35;25.00;42.50
68924;DHT22;55961;52.156;20.942;2023-06-14T12:50:01;25.00;42.10
68924;DHT22;55961;52.156;20.942;2023-06-14T12:52:27;25.00;44.00
68924;DHT22;55961;52.156;20.942;2023-06-14T12:54:53;25.20;43.00
68924;DHT22;55961;52.156;20.942;2023-06-14T12:57:19;25.30;42.50
68924;DHT22;55961;52.156;20.942;2023-06-14T12:59:45;25.40;43.60
68924;DHT22;55961;52.156;20.942;2023-06-14T13:02:19;25.50;42.50
68924;DHT22;55961;52.156;20.942;2023-06-14T13:04:46;25.60;41.40
68924;DHT22;55961;52.156;20.942;2023-06-14T13:07:12;25.70;41.50
68924;DHT22;55961;52.156;20.942;2023-06-14T13:09:38;25.80;42.30
68924;DHT22;55961;52.156;20.942;2023-06-14T13:12:04;25.90;42.90
68924;DHT22;55961;52.156;20.942;2023-06-14T13:14:30;26.00;41.90
68924;DHT22;55961;52.156;20.942;2023-06-14T13:16:56;26.00;41.80
68924;DHT22;55961;52.156;20.942;2023-06-14T13:19:22;26.10;41.30
68924;DHT22;55961;52.156;20.942;2023-06-14T13:21:48;26.10;41.40
68924;DHT22;55961;52.156;20.942;2023-06-14T13:24:14;26.10;41.50
68924;DHT22;55961;52.156;20.942;2023-06-14T13:26:41;26.10;40.30
68924;DHT22;55961;52.156;20.942;2023-06-14T13:29:07;26.00;41.00
68924;DHT22;55961;52.156;20.942;2023-06-14T13:31:32;26.00;40.10
68924;DHT22;55961;52.156;20.942;2023-06-14T13:33:59;25.90;40.20
68924;DHT22;55961;52.156;20.942;2023-06-14T13:36:25;25.80;40.80
68924;DHT22;55961;52.156;20.942;2023-06-14T13:38:51;25.70;41.10
68924;DHT22;55961;52.156;20.942;2023-06-14T13:41:18;25.70;40.60
68924;DHT22;55961;52.156;20.942;2023-06-14T13:43:44;25.50;41.20
68924;DHT22;55961;52.156;20.942;2023-06-14T13:46:10;25.50;41.50
68924;DHT22;55961;52.156;20.942;2023-06-14T13:48:36;25.40;41.80
68924;DHT22;55961;52.156;20.942;2023-06-14T13:51:02;25.40;41.90
68924;DHT22;55961;52.156;20.942;2023-06-14T13:53:30;25.40;41.60
68924;DHT22;55961;52.156;20.942;2023-06-14T13:55:56;25.50;41.60
68924;DHT22;55961;52.156;20.942;2023-06-14T13:58:22;25.50;42.70
68924;DHT22;55961;52.156;20.942;2023-06-14T14:00:49;25.60;42.30
68924;DHT22;55961;52.156;20.942;2023-06-14T14:03:16;25.70;41.80
68924;DHT22;55961;52.156;20.942;2023-06-14T14:05:42;25.80;41.20
68924;DHT22;55961;52.156;20.942;2023-06-14T14:08:08;25.80;41.60
68924;DHT22;55961;52.156;20.942;2023-06-14T14:10:34;25.80;41.20
68924;DHT22;55961;52.156;20.942;2023-06-14T14:13:00;25.80;41.10
68924;DHT22;55961;52.156;20.942;2023-06-14T14:15:27;25.80;40.80
68924;DHT22;55961;52.156;20.942;2023-06-14T14:17:55;25.70;41.10
68924;DHT22;55961;52.156;20.942;2023-06-14T14:20:23;25.70;41.50
68924;DHT22;55961;52.156;20.942;2023-06-14T14:22:49;25.70;41.70
68924;DHT22;55961;52.156;20.942;2023-06-14T14:25:15;25.70;41.60
68924;DHT22;55961;52.156;20.942;2023-06-14T14:27:42;25.70;41.60
68924;DHT22;55961;52.156;20.942;2023-06-14T14:30:08;25.60;42.20
68924;DHT22;55961;52.156;20.942;2023-06-14T14:32:34;25.60;42.50
68924;DHT22;55961;52.156;20.942;2023-06-14T14:35:00;25.70;42.20
68924;DHT22;55961;52.156;20.942;2023-06-14T14:37:26;25.60;42.50
68924;DHT22;55961;52.156;20.942;2023-06-14T14:39:52;25.60;42.20
68924;DHT22;55961;52.156;20.942;2023-06-14T14:42:18;25.60;42.30
68924;DHT22;55961;52.156;20.942;2023-06-14T14:44:45;25.50;42.40
68924;DHT22;55961;52.156;20.942;2023-06-14T14:47:11;25.50;42.70
68924;DHT22;55961;52.156;20.942;2023-06-14T14:49:37;25.40;42.50
68924;DHT22;55961;52.156;20.942;2023-06-14T14:52:03;25.30;42.30
68924;DHT22;55961;52.156;20.942;2023-06-14T14:54:29;25.20;42.40
68924;DHT22;55961;52.156;20.942;2023-06-14T14:56:55;25.20;42.70
68924;DHT22;55961;52.156;20.942;2023-06-14T14:59:21;25.10;43.30
68924;DHT22;55961;52.156;20.942;2023-06-14T15:01:48;25.00;43.10
68924;DHT22;55961;52.156;20.942;2023-06-14T15:04:14;25.00;43.70
68924;DHT22;55961;52.156;20.942;2023-06-14T15:06:40;24.90;44.00
68924;DHT22;55961;52.156;20.942;2023-06-14T15:09:06;24.90;43.80
68924;DHT22;55961;52.156;20.942;2023-06-14T15:11:32;24.80;43.60
68924;DHT22;55961;52.156;20.942;2023-06-14T15:13:58;24.70;43.90
68924;DHT22;55961;52.156;20.942;2023-06-14T15:16:24;24.70;43.70
68924;DHT22;55961;52.156;20.942;2023-06-14T15:18:50;24.60;44.10
68924;DHT22;55961;52.156;20.942;2023-06-14T15:21:16;24.50;43.90
68924;DHT22;55961;52.156;20.942;2023-06-14T15:23:45;24.50;44.30
68924;DHT22;55961;52.156;20.942;2023-06-14T15:26:12;24.50;44.70
68924;DHT22;55961;52.156;20.942;2023-06-14T15:28:37;24.50;44.60
68924;DHT22;55961;52.156;20.942;2023-06-14T15:31:05;24.60;44.60
68924;DHT22;55961;52.156;20.942;2023-06-14T15:33:31;24.60;44.40
68924;DHT22;55961;52.156;20.942;2023-06-14T15:35:57;24.70;44.40
68924;DHT22;55961;52.156;20.942;2023-06-14T15:38:23;24.80;43.70